Terminal Aerodrome Forecast
Issued by NWS

Home | Current Version | Previous Version | Text Only | Print | Product List | Glossary On
Versions: 1 2 3 4 5 6 7 8 9 10 11 12 13 14
974
FTUS44 KLIX 121138
TAFMSY
TAF
KMSY 121138Z 1212/1312 23007KT P6SM SCT025
     FM121700 26010KT P6SM SCT090
     FM130000 30006KT P6SM SCT200
     FM130400 01007KT P6SM SCT250
     FM131000 03011G22KT P6SM SKC=

USA.gov is the U.S. government's official web portal to all federal, state and local government web resources and services.